Time;durP1;ratioP1;P1;durP2;ratioP2;P2;SDS_P1;SDS_P2;PMS_P1;PMS_P2;Temp;Humidity;BMP_temperature;BMP_pressure;BME280_temperature;BME280_humidity;BME280_pressure;Samples;Min_cycle;Max_cycle;Signal;HPM_P1;HPM_P2
2023/10/25 00:02:10;;;;;;;0.75;0.75;;;18.90;81.50;;;;;;5114967;27;20195;-69
2023/10/25 00:04:36;;;;;;;1.92;1.13;;;18.90;81.50;;;;;;5119085;27;20211;-69
2023/10/25 00:07:02;;;;;;;1.10;1.00;;;18.80;81.40;;;;;;5133669;27;20215;-69
2023/10/25 00:09:27;;;;;;;1.35;1.25;;;18.80;81.40;;;;;;5119222;27;20187;-70
2023/10/25 00:11:54;;;;;;;1.20;1.10;;;18.80;81.40;;;;;;5119007;27;20191;-69
2023/10/25 00:14:20;;;;;;;1.50;1.40;;;18.90;81.50;;;;;;5098125;27;20248;-69
2023/10/25 00:16:45;;;;;;;1.60;1.40;;;18.90;81.50;;;;;;5115247;27;20575;-69
2023/10/25 00:19:11;;;;;;;0.90;0.90;;;18.80;81.40;;;;;;5101746;27;20191;-70
2023/10/25 00:21:37;;;;;;;1.20;1.10;;;18.80;81.40;;;;;;5133393;27;20187;-70
2023/10/25 00:24:03;;;;;;;1.05;1.05;;;18.90;81.50;;;;;;5135745;27;20215;-69
2023/10/25 00:26:29;;;;;;;1.20;1.10;;;18.90;81.50;;;;;;5111503;27;20224;-70
2023/10/25 00:28:55;;;;;;;1.10;1.00;;;18.80;81.40;;;;;;5115037;27;20240;-69
2023/10/25 00:31:21;;;;;;;1.15;0.90;;;18.80;81.40;;;;;;5114882;27;20187;-70
2023/10/25 00:33:46;;;;;;;0.88;0.88;;;18.80;81.30;;;;;;5087910;28;20177;-70
2023/10/25 00:36:12;;;;;;;1.50;1.13;;;18.80;81.40;;;;;;5098004;27;20185;-70
2023/10/25 00:38:38;;;;;;;1.27;1.17;;;18.90;81.40;;;;;;5115040;27;20198;-70
2023/10/25 00:41:04;;;;;;;1.20;1.10;;;18.80;81.30;;;;;;5097979;27;20282;-69
2023/10/25 00:43:29;;;;;;;1.00;0.98;;;18.80;81.30;;;;;;5096781;27;20206;-70
2023/10/25 00:46:11;;;;;;;1.05;0.90;;;18.80;81.30;;;;;;5114659;27;20583;-70
2023/10/25 00:48:48;;;;;;;1.13;1.02;;;18.80;81.30;;;;;;5106495;28;20263;-70
2023/10/25 00:51:17;;;;;;;1.15;1.05;;;18.80;81.20;;;;;;5129889;27;20185;-70
2023/10/25 00:53:49;;;;;;;1.20;1.10;;;18.80;81.20;;;;;;5097034;27;20180;-69
2023/10/25 00:56:16;;;;;;;1.10;1.00;;;18.80;81.30;;;;;;5111884;27;20190;-69
2023/10/25 00:58:49;;;;;;;1.00;1.00;;;18.80;81.30;;;;;;5114135;27;20183;-69
2023/10/25 01:01:17;;;;;;;0.80;0.80;;;18.80;81.10;;;;;;5109472;27;20187;-69
2023/10/25 01:03:45;;;;;;;1.38;1.00;;;18.90;81.30;;;;;;5114522;27;20187;-69
2023/10/25 01:06:11;;;;;;;1.20;0.95;;;18.80;81.20;;;;;;5097230;27;20207;-70
2023/10/25 01:08:37;;;;;;;1.10;1.00;;;18.80;81.20;;;;;;5097654;27;20184;-70
2023/10/25 01:11:04;;;;;;;0.80;0.80;;;18.80;81.30;;;;;;5097319;27;20183;-70
2023/10/25 01:13:31;;;;;;;0.77;0.77;;;18.80;81.20;;;;;;5097512;28;20650;-69
2023/10/25 01:15:57;;;;;;;0.60;0.60;;;18.80;81.10;;;;;;5095062;28;20215;-69
2023/10/25 01:18:23;;;;;;;1.08;0.90;;;18.80;81.10;;;;;;5114059;28;20215;-70
2023/10/25 01:20:49;;;;;;;0.80;0.77;;;18.80;81.10;;;;;;5114426;28;20179;-70
2023/10/25 01:23:15;;;;;;;0.75;0.75;;;18.80;81.10;;;;;;5100073;28;20190;-69
2023/10/25 01:25:44;;;;;;;0.70;0.70;;;18.80;81.20;;;;;;5114587;28;20225;-69
2023/10/25 01:28:11;;;;;;;1.05;0.95;;;18.80;81.10;;;;;;5116752;28;20183;-70
2023/10/25 01:30:38;;;;;;;0.93;0.85;;;18.80;81.10;;;;;;5114463;28;20183;-70
2023/10/25 01:33:04;;;;;;;1.02;1.02;;;18.80;81.10;;;;;;5114182;28;20183;-70
2023/10/25 01:35:30;;;;;;;0.88;0.88;;;18.80;81.10;;;;;;5096389;28;20259;-70
2023/10/25 01:37:56;;;;;;;0.90;0.80;;;18.80;81.00;;;;;;5114642;27;20183;-70
2023/10/25 01:40:22;;;;;;;0.80;0.80;;;18.80;81.00;;;;;;5100673;27;20179;-69
2023/10/25 01:42:51;;;;;;;1.00;1.00;;;18.80;81.00;;;;;;5120357;27;20194;-69
2023/10/25 01:45:18;;;;;;;1.10;0.90;;;18.80;81.00;;;;;;5104484;27;20202;-69
2023/10/25 01:47:44;;;;;;;0.70;0.70;;;18.80;81.10;;;;;;5108332;27;20239;-69
2023/10/25 01:50:09;;;;;;;0.60;0.60;;;18.80;81.00;;;;;;5118355;27;20187;-69
2023/10/25 01:52:35;;;;;;;0.70;0.70;;;18.80;81.10;;;;;;5118234;27;20239;-69
2023/10/25 01:55:01;;;;;;;0.80;0.80;;;18.80;81.10;;;;;;5116046;27;20281;-69
2023/10/25 01:57:27;;;;;;;0.70;0.68;;;18.80;81.00;;;;;;5120507;27;20219;-69
2023/10/25 01:59:53;;;;;;;0.85;0.80;;;18.80;81.10;;;;;;5118104;27;20218;-69
2023/10/25 02:02:19;;;;;;;0.88;0.88;;;18.80;81.10;;;;;;5135185;27;20194;-69
2023/10/25 02:04:44;;;;;;;1.27;1.17;;;18.80;81.10;;;;;;5117633;27;20209;-69
2023/10/25 02:07:10;;;;;;;0.88;0.88;;;18.80;81.00;;;;;;5120151;27;20245;-69
2023/10/25 02:09:36;;;;;;;0.70;0.70;;;18.80;81.10;;;;;;5105421;27;20171;-69
2023/10/25 02:12:02;;;;;;;0.68;0.68;;;18.80;81.00;;;;;;5118096;27;20192;-70
2023/10/25 02:14:28;;;;;;;0.88;0.60;;;18.80;81.00;;;;;;5100303;27;20207;-69
2023/10/25 02:16:54;;;;;;;0.70;0.70;;;18.80;81.10;;;;;;5100582;27;20191;-69
2023/10/25 02:19:20;;;;;;;0.82;0.82;;;18.80;81.10;;;;;;5104587;27;20213;-69
2023/10/25 02:21:46;;;;;;;0.70;0.70;;;18.80;81.10;;;;;;5135751;27;20183;-70
2023/10/25 02:24:15;;;;;;;0.80;0.80;;;18.80;81.10;;;;;;5104764;27;20206;-70
2023/10/25 02:26:42;;;;;;;0.70;0.70;;;18.80;81.00;;;;;;5117778;27;20235;-70
2023/10/25 02:29:07;;;;;;;0.60;0.60;;;18.80;81.00;;;;;;5100394;27;20190;-70
2023/10/25 02:31:34;;;;;;;0.70;0.70;;;18.80;81.00;;;;;;5117357;27;20183;-69
2023/10/25 02:34:00;;;;;;;0.77;0.77;;;18.80;81.00;;;;;;5115037;27;20180;-70
2023/10/25 02:36:26;;;;;;;0.60;0.60;;;18.80;81.10;;;;;;5115424;27;20211;-70
2023/10/25 02:38:52;;;;;;;0.65;0.60;;;18.80;81.00;;;;;;5117277;27;20180;-70
2023/10/25 02:41:18;;;;;;;0.82;0.80;;;18.80;81.00;;;;;;5099226;27;20195;-70
2023/10/25 02:43:44;;;;;;;0.60;0.60;;;18.80;81.00;;;;;;5099303;27;20175;-69
2023/10/25 02:46:12;;;;;;;0.60;0.60;;;18.80;81.10;;;;;;5127206;27;20222;-69
2023/10/25 02:48:38;;;;;;;0.60;0.60;;;18.80;81.10;;;;;;5088571;28;20261;-70
2023/10/25 02:51:05;;;;;;;0.73;0.73;;;18.80;81.10;;;;;;5125940;27;20274;-70
2023/10/25 02:53:31;;;;;;;0.60;0.60;;;18.80;81.10;;;;;;5116843;27;20707;-69
2023/10/25 02:56:08;;;;;;;0.80;0.80;;;18.80;81.30;;;;;;5094723;28;20239;-70
2023/10/25 02:58:34;;;;;;;0.70;0.70;;;18.80;81.10;;;;;;5108408;27;20272;-70
2023/10/25 03:01:00;;;;;;;0.65;0.65;;;18.80;81.10;;;;;;5101660;28;20227;-69
2023/10/25 03:03:31;;;;;;;0.60;0.60;;;18.80;81.10;;;;;;5116622;27;20210;-69
2023/10/25 03:05:57;;;;;;;0.80;0.80;;;18.80;81.10;;;;;;5115055;27;20219;-69
2023/10/25 03:08:24;;;;;;;0.90;0.70;;;18.80;81.10;;;;;;5099561;27;20590;-69
2023/10/25 03:10:49;;;;;;;0.60;0.60;;;18.80;81.10;;;;;;5121774;27;20786;-70
2023/10/25 03:13:16;;;;;;;0.50;0.50;;;18.80;81.00;;;;;;5116355;27;20179;-70
2023/10/25 03:15:42;;;;;;;0.70;0.70;;;18.80;81.10;;;;;;5102149;27;20261;-70
2023/10/25 03:18:08;;;;;;;0.70;0.70;;;18.80;81.10;;;;;;5135896;27;20187;-69
2023/10/25 03:20:33;;;;;;;0.75;0.75;;;18.80;81.10;;;;;;5116631;27;20261;-69
2023/10/25 03:23:00;;;;;;;0.90;0.90;;;18.80;81.10;;;;;;5101884;27;20198;-69
2023/10/25 03:25:27;;;;;;;0.60;0.60;;;18.80;81.10;;;;;;5134391;27;20266;-70
2023/10/25 03:27:53;;;;;;;0.68;0.65;;;18.80;81.10;;;;;;5134753;27;20171;-69
2023/10/25 03:30:18;;;;;;;0.50;0.50;;;18.80;81.10;;;;;;5116238;27;20183;-70
2023/10/25 03:32:44;;;;;;;0.75;0.75;;;18.80;81.00;;;;;;5116052;27;20594;-69
2023/10/25 03:35:12;;;;;;;0.65;0.65;;;18.80;81.10;;;;;;5115777;27;20210;-70
2023/10/25 03:37:41;;;;;;;0.70;0.70;;;18.80;81.10;;;;;;5115859;27;20232;-69
2023/10/25 03:40:09;;;;;;;0.60;0.60;;;18.80;81.10;;;;;;5115809;27;20179;-70
2023/10/25 03:42:35;;;;;;;0.52;0.52;;;18.80;81.10;;;;;;5134172;27;20180;-70
2023/10/25 03:45:02;;;;;;;0.68;0.68;;;18.80;81.10;;;;;;5098854;27;20230;-69
2023/10/25 03:47:31;;;;;;;0.50;0.50;;;18.80;81.10;;;;;;5117177;27;20206;-70
2023/10/25 03:49:57;;;;;;;0.73;0.73;;;18.80;81.10;;;;;;5139598;27;20566;-70
2023/10/25 03:52:22;;;;;;;0.50;0.50;;;18.80;81.10;;;;;;5097657;27;20188;-70
2023/10/25 03:54:50;;;;;;;0.50;0.50;;;18.80;81.10;;;;;;5133937;27;20196;-70
2023/10/25 03:57:16;;;;;;;1.38;0.65;;;18.80;81.10;;;;;;5115856;27;20210;-70
2023/10/25 03:59:42;;;;;;;0.77;0.77;;;18.80;81.10;;;;;;5116390;27;20228;-70
2023/10/25 04:02:07;;;;;;;0.65;0.65;;;18.80;81.10;;;;;;5099778;27;20194;-69
2023/10/25 04:04:33;;;;;;;0.50;0.50;;;18.80;81.10;;;;;;5116092;27;20215;-70
2023/10/25 04:06:59;;;;;;;1.23;0.90;;;18.80;81.20;;;;;;5099878;27;20222;-70
2023/10/25 04:09:25;;;;;;;0.63;0.63;;;18.80;81.10;;;;;;5116093;27;20187;-70
2023/10/25 04:11:50;;;;;;;0.52;0.52;;;18.80;81.20;;;;;;5133890;27;20207;-70
2023/10/25 04:14:16;;;;;;;0.60;0.60;;;18.80;81.10;;;;;;5133471;27;20579;-69
2023/10/25 04:16:42;;;;;;;0.75;0.60;;;18.80;81.10;;;;;;5133552;27;20228;-70
2023/10/25 04:19:07;;;;;;;0.68;0.68;;;18.80;81.40;;;;;;5115119;27;20282;-70
2023/10/25 04:21:33;;;;;;;0.80;0.80;;;18.80;81.10;;;;;;5115325;27;20198;-70
2023/10/25 04:23:59;;;;;;;0.80;0.80;;;18.80;81.10;;;;;;5114982;27;20183;-70
2023/10/25 04:26:25;;;;;;;0.70;0.70;;;18.80;81.10;;;;;;5097987;27;20226;-69
2023/10/25 04:28:50;;;;;;;0.80;0.80;;;18.80;81.10;;;;;;5128805;27;20180;-68
2023/10/25 04:31:17;;;;;;;0.55;0.55;;;18.80;81.10;;;;;;5129811;27;20184;-69
2023/10/25 04:33:44;;;;;;;0.60;0.60;;;18.80;81.20;;;;;;5115138;27;20194;-69
2023/10/25 04:36:10;;;;;;;0.50;0.50;;;18.80;81.10;;;;;;5114922;27;20195;-69
2023/10/25 04:38:36;;;;;;;0.80;0.80;;;18.80;81.20;;;;;;5115242;27;20214;-69
2023/10/25 04:41:02;;;;;;;0.65;0.65;;;18.80;81.20;;;;;;5115113;27;20210;-69
2023/10/25 04:43:28;;;;;;;0.73;0.73;;;18.80;81.10;;;;;;5114546;27;20274;-69
2023/10/25 04:45:54;;;;;;;0.65;0.65;;;18.80;81.90;;;;;;5115061;27;20215;-69
2023/10/25 04:48:20;;;;;;;0.90;0.90;;;18.80;81.20;;;;;;5097687;27;20195;-68
2023/10/25 04:50:46;;;;;;;1.33;0.60;;;18.80;81.20;;;;;;5114875;27;20179;-69
2023/10/25 04:53:11;;;;;;;0.80;0.80;;;18.80;81.20;;;;;;5105900;27;20190;-69
2023/10/25 04:55:37;;;;;;;0.60;0.60;;;18.80;81.20;;;;;;5114605;27;20210;-69
2023/10/25 04:58:04;;;;;;;0.70;0.70;;;18.80;81.20;;;;;;5115105;27;20194;-69
2023/10/25 05:00:33;;;;;;;1.25;0.80;;;18.80;81.20;;;;;;5114349;27;20206;-69
2023/10/25 05:02:59;;;;;;;0.70;0.70;;;18.80;81.10;;;;;;5107534;28;20241;-69
2023/10/25 05:05:25;;;;;;;0.90;0.73;;;18.80;81.20;;;;;;5131301;27;20223;-69
2023/10/25 05:07:51;;;;;;;0.60;0.60;;;18.80;81.20;;;;;;5114611;27;20207;-69
2023/10/25 05:10:18;;;;;;;0.60;0.60;;;18.80;81.10;;;;;;5106214;28;20232;-69
2023/10/25 05:12:47;;;;;;;0.80;0.80;;;18.80;81.20;;;;;;5113846;27;20211;-72
2023/10/25 05:15:15;;;;;;;0.80;0.80;;;18.80;81.20;;;;;;5132489;27;20293;-70
2023/10/25 05:17:43;;;;;;;1.85;0.90;;;18.80;81.20;;;;;;5097718;28;20192;-70
2023/10/25 05:20:10;;;;;;;0.80;0.80;;;18.80;81.20;;;;;;5106505;28;20187;-70
2023/10/25 05:22:40;;;;;;;0.93;0.80;;;18.80;81.20;;;;;;5111967;28;20222;-69
2023/10/25 05:25:08;;;;;;;0.80;0.80;;;18.80;81.20;;;;;;5122628;27;20215;-70
2023/10/25 05:27:35;;;;;;;1.05;0.70;;;18.80;81.20;;;;;;5131477;27;20218;-69
2023/10/25 05:30:04;;;;;;;0.75;0.60;;;18.80;81.20;;;;;;5097445;28;20210;-71
2023/10/25 05:32:35;;;;;;;1.25;0.70;;;18.80;81.20;;;;;;5116720;27;20191;-70
2023/10/25 05:35:05;;;;;;;0.70;0.70;;;18.80;81.20;;;;;;5097239;28;20231;-70
2023/10/25 05:37:32;;;;;;;0.70;0.60;;;18.80;81.30;;;;;;5104969;28;20210;-70
2023/10/25 05:39:58;;;;;;;0.73;0.73;;;18.80;82.00;;;;;;5114309;28;20191;-70
2023/10/25 05:42:25;;;;;;;0.90;0.90;;;18.80;81.30;;;;;;5115578;27;20281;-70
2023/10/25 05:44:53;;;;;;;0.80;0.80;;;18.80;81.30;;;;;;5116337;27;20221;-70
2023/10/25 05:47:21;;;;;;;0.98;0.63;;;18.80;81.20;;;;;;5116080;28;20211;-69
2023/10/25 05:49:48;;;;;;;1.02;1.02;;;18.80;81.20;;;;;;5110387;27;20167;-70
2023/10/25 05:52:14;;;;;;;1.25;0.93;;;18.80;81.20;;;;;;5109149;28;20184;-70
2023/10/25 05:54:40;;;;;;;1.65;0.93;;;18.80;81.30;;;;;;5096947;28;20203;-70
2023/10/25 05:57:07;;;;;;;0.75;0.75;;;18.80;81.30;;;;;;5132193;28;20270;-70
2023/10/25 05:59:34;;;;;;;0.82;0.82;;;18.80;81.20;;;;;;5132273;28;20198;-70
2023/10/25 06:02:22;;;;;;;0.80;0.70;;;18.80;81.30;;;;;;5132150;28;20192;-70
2023/10/25 06:04:49;;;;;;;0.60;0.60;;;18.80;81.30;;;;;;5089918;28;20211;-70
2023/10/25 06:07:16;;;;;;;1.00;0.70;;;18.80;81.30;;;;;;5113789;28;20578;-70
2023/10/25 06:09:42;;;;;;;0.60;0.60;;;18.80;81.60;;;;;;5132235;28;20179;-70
2023/10/25 06:12:10;;;;;;;0.60;0.60;;;18.80;81.30;;;;;;5096804;28;20191;-70
2023/10/25 06:14:36;;;;;;;0.80;0.80;;;18.80;81.30;;;;;;5112940;28;20571;-70
2023/10/25 06:17:02;;;;;;;0.60;0.60;;;18.80;81.40;;;;;;5113700;28;20195;-70
2023/10/25 06:19:28;;;;;;;0.47;0.47;;;18.80;81.30;;;;;;5113284;28;20183;-69
2023/10/25 06:21:54;;;;;;;1.52;0.70;;;18.80;81.30;;;;;;5113636;28;20196;-69
2023/10/25 06:24:21;;;;;;;0.73;0.70;;;18.80;81.40;;;;;;5131699;27;20206;-69
2023/10/25 06:26:47;;;;;;;1.02;0.70;;;18.80;81.40;;;;;;5135482;27;20255;-69
2023/10/25 06:29:12;;;;;;;0.63;0.63;;;18.80;81.40;;;;;;5117394;27;20722;-69
2023/10/25 06:31:38;;;;;;;1.30;1.02;;;18.80;81.30;;;;;;5125231;27;20190;-69
2023/10/25 06:34:04;;;;;;;1.55;0.80;;;18.80;81.40;;;;;;5117119;27;20210;-69
2023/10/25 06:36:34;;;;;;;0.88;0.80;;;18.80;81.30;;;;;;5116986;27;20193;-69
2023/10/25 06:39:07;;;;;;;0.77;0.77;;;18.80;81.30;;;;;;5096836;28;20487;-69
2023/10/25 06:41:36;;;;;;;0.70;0.70;;;18.80;81.30;;;;;;5133900;27;20320;-69
2023/10/25 06:44:05;;;;;;;1.02;0.80;;;18.80;81.30;;;;;;5117271;27;20207;-69
2023/10/25 06:46:31;;;;;;;1.00;0.80;;;18.80;81.30;;;;;;5116929;27;20247;-69
2023/10/25 06:48:58;;;;;;;0.88;0.73;;;18.80;81.30;;;;;;5117057;27;20263;-69
2023/10/25 06:51:25;;;;;;;1.67;1.02;;;18.80;81.30;;;;;;5133968;27;20211;-69
2023/10/25 06:53:52;;;;;;;0.70;0.70;;;18.80;81.30;;;;;;5116879;27;20187;-69
2023/10/25 06:56:19;;;;;;;0.73;0.63;;;18.80;81.30;;;;;;5116802;27;20198;-69
2023/10/25 06:58:45;;;;;;;1.05;0.80;;;18.80;81.30;;;;;;5112642;28;20187;-69
2023/10/25 07:01:18;;;;;;;2.05;1.05;;;18.80;81.40;;;;;;5113289;27;20194;-69
2023/10/25 07:03:51;;;;;;;1.98;1.55;;;18.80;81.40;;;;;;5125627;27;20207;-69
2023/10/25 07:06:18;;;;;;;1.20;1.10;;;18.80;81.40;;;;;;5122889;27;20214;-69
2023/10/25 07:08:45;;;;;;;1.10;1.00;;;18.80;81.40;;;;;;5112726;28;20192;-69
2023/10/25 07:11:11;;;;;;;1.50;1.10;;;18.80;81.30;;;;;;5109898;28;20194;-70
2023/10/25 07:13:37;;;;;;;1.20;0.85;;;18.80;81.40;;;;;;5116522;27;20195;-69
2023/10/25 07:16:03;;;;;;;1.70;1.20;;;18.80;81.30;;;;;;5116522;27;20215;-69
2023/10/25 07:18:29;;;;;;;1.23;1.10;;;18.80;81.30;;;;;;5116738;27;20187;-70
2023/10/25 07:20:56;;;;;;;1.63;1.20;;;18.80;81.30;;;;;;5116662;27;20547;-70
2023/10/25 07:23:21;;;;;;;1.30;1.20;;;18.80;81.30;;;;;;5097281;27;20196;-70
2023/10/25 07:25:47;;;;;;;2.25;1.08;;;18.80;81.30;;;;;;5099201;27;20207;-70
2023/10/25 07:28:14;;;;;;;1.00;0.90;;;18.80;81.30;;;;;;5134556;27;20226;-69
2023/10/25 07:30:40;;;;;;;0.95;0.85;;;18.80;81.20;;;;;;5134030;27;20183;-69
2023/10/25 07:33:06;;;;;;;1.30;0.98;;;18.80;81.30;;;;;;5134143;27;20187;-69
2023/10/25 07:35:32;;;;;;;1.20;1.10;;;18.80;81.30;;;;;;5134048;27;20211;-69
2023/10/25 07:37:58;;;;;;;1.33;1.10;;;18.90;81.30;;;;;;5115882;27;20251;-69
2023/10/25 07:40:24;;;;;;;1.23;1.13;;;18.90;81.30;;;;;;5123276;27;20185;-69
2023/10/25 07:42:49;;;;;;;1.33;1.23;;;18.90;81.30;;;;;;5108385;27;20212;-69
2023/10/25 07:45:15;;;;;;;1.38;1.27;;;18.90;81.30;;;;;;5141471;27;20724;-68
2023/10/25 07:47:41;;;;;;;0.98;0.98;;;18.90;81.30;;;;;;5137272;27;20221;-69
2023/10/25 07:50:07;;;;;;;0.80;0.80;;;18.90;81.30;;;;;;5119834;27;20187;-69
2023/10/25 07:52:36;;;;;;;1.27;0.98;;;18.90;81.30;;;;;;5115620;27;20697;-69
2023/10/25 07:55:03;;;;;;;0.80;0.80;;;18.90;81.20;;;;;;5105050;28;20204;-69
2023/10/25 07:57:30;;;;;;;1.25;1.15;;;18.90;81.30;;;;;;5114810;27;20180;-69
2023/10/25 07:59:56;;;;;;;1.38;0.90;;;18.90;81.20;;;;;;5132753;27;20211;-69
2023/10/25 08:02:22;;;;;;;1.38;1.00;;;18.90;81.30;;;;;;5133680;27;20215;-69
2023/10/25 08:04:48;;;;;;;1.52;1.08;;;18.90;81.30;;;;;;5115351;27;20294;-69
2023/10/25 08:07:13;;;;;;;0.73;0.70;;;18.90;81.20;;;;;;5122636;27;20250;-69
2023/10/25 08:09:42;;;;;;;0.80;0.80;;;18.90;81.20;;;;;;5115126;27;20187;-69
2023/10/25 08:12:09;;;;;;;0.93;0.80;;;18.90;81.20;;;;;;5133765;27;20198;-69
2023/10/25 08:14:35;;;;;;;0.65;0.65;;;18.90;81.20;;;;;;5115042;27;20207;-69
2023/10/25 08:17:02;;;;;;;1.02;0.98;;;18.90;81.20;;;;;;5133596;27;20192;-69
2023/10/25 08:19:28;;;;;;;0.80;0.80;;;18.90;81.20;;;;;;5115384;27;20222;-69
2023/10/25 08:21:54;;;;;;;1.00;0.90;;;18.90;81.20;;;;;;5115153;27;20179;-69
2023/10/25 08:24:20;;;;;;;1.00;0.70;;;18.90;81.20;;;;;;5107859;27;20596;-69
2023/10/25 08:26:45;;;;;;;0.80;0.80;;;18.90;81.20;;;;;;5114895;27;20226;-70
2023/10/25 08:29:11;;;;;;;0.90;0.90;;;18.90;81.20;;;;;;5094628;28;20199;-69
2023/10/25 08:31:37;;;;;;;1.95;0.98;;;18.90;81.20;;;;;;5140498;27;20272;-69
2023/10/25 08:34:03;;;;;;;1.20;1.10;;;18.90;81.20;;;;;;5133107;27;20211;-69
2023/10/25 08:36:30;;;;;;;1.00;0.90;;;18.90;81.20;;;;;;5114831;27;20196;-69
2023/10/25 08:38:56;;;;;;;1.05;0.90;;;18.90;81.30;;;;;;5133553;27;20270;-69
2023/10/25 08:41:25;;;;;;;0.90;0.90;;;18.90;81.20;;;;;;5114833;27;20183;-69
2023/10/25 08:43:51;;;;;;;1.00;0.90;;;18.90;81.30;;;;;;5121614;27;20250;-69
2023/10/25 08:46:19;;;;;;;1.10;0.85;;;18.90;81.30;;;;;;5133107;27;20732;-69
2023/10/25 08:48:45;;;;;;;1.00;0.90;;;18.90;81.20;;;;;;5122701;27;20547;-69
2023/10/25 08:51:13;;;;;;;0.73;0.73;;;18.90;81.30;;;;;;5133129;27;20206;-69
2023/10/25 08:53:41;;;;;;;0.75;0.75;;;18.90;81.30;;;;;;5114512;27;20262;-69
2023/10/25 08:56:08;;;;;;;0.63;0.63;;;18.90;81.30;;;;;;5097841;27;20213;-69
2023/10/25 08:58:35;;;;;;;1.90;0.98;;;18.90;81.30;;;;;;5121477;27;20247;-69
2023/10/25 09:01:01;;;;;;;0.68;0.68;;;18.90;81.30;;;;;;5094360;28;20196;-69
2023/10/25 09:03:32;;;;;;;0.70;0.70;;;18.90;81.30;;;;;;5129184;27;20191;-69
2023/10/25 09:06:03;;;;;;;0.95;0.90;;;18.90;81.30;;;;;;5114269;27;20216;-69
2023/10/25 09:08:32;;;;;;;1.17;0.90;;;18.90;81.30;;;;;;5085625;28;20193;-69
2023/10/25 09:11:11;;;;;;;2.05;1.27;;;18.90;81.30;;;;;;5100076;28;20234;-69
2023/10/25 09:13:43;;;;;;;1.83;1.50;;;18.90;81.30;;;;;;5090979;28;20268;-69
2023/10/25 09:16:14;;;;;;;1.98;1.40;;;18.90;81.40;;;;;;5105450;28;20180;-69
2023/10/25 09:18:41;;;;;;;2.30;1.25;;;18.90;81.40;;;;;;5085415;28;20188;-69
2023/10/25 09:21:10;;;;;;;1.10;1.00;;;18.90;81.40;;;;;;5077231;28;20275;-69
2023/10/25 09:23:36;;;;;;;2.08;1.40;;;18.90;81.40;;;;;;5068356;28;20200;-69
2023/10/25 09:26:16;;;;;;;1.75;1.58;;;18.90;81.40;;;;;;5083756;28;20767;-69
2023/10/25 09:28:45;;;;;;;1.63;1.30;;;18.90;81.40;;;;;;5062263;28;20179;-69
2023/10/25 09:31:24;;;;;;;1.80;1.50;;;18.90;81.40;;;;;;5080555;28;20189;-69
2023/10/25 09:33:51;;;;;;;1.42;1.30;;;18.90;81.40;;;;;;5104729;28;20178;-69
2023/10/25 09:36:21;;;;;;;1.73;1.40;;;18.90;81.40;;;;;;5080277;28;20176;-69
2023/10/25 09:38:49;;;;;;;1.38;1.27;;;18.90;81.40;;;;;;5093979;28;20183;-69
2023/10/25 09:41:17;;;;;;;1.88;1.45;;;18.90;81.40;;;;;;5086597;28;20188;-69
2023/10/25 09:43:50;;;;;;;1.20;1.10;;;18.90;81.40;;;;;;5101807;28;20195;-69
2023/10/25 09:46:21;;;;;;;1.35;1.20;;;18.90;81.40;;;;;;5112028;28;20203;-69
2023/10/25 09:49:10;;;;;;;1.30;1.20;;;18.90;81.50;;;;;;5112042;28;20188;-69
2023/10/25 09:52:06;;;;;;;1.48;1.38;;;18.90;81.40;;;;;;5093585;28;20191;-69
2023/10/25 09:54:47;;;;;;;1.40;1.30;;;18.90;81.50;;;;;;5099905;28;20223;-69
2023/10/25 09:57:14;;;;;;;1.20;1.10;;;18.90;81.40;;;;;;5093571;28;20210;-69
2023/10/25 09:59:42;;;;;;;1.42;1.00;;;18.90;81.40;;;;;;5078953;28;20670;-69
2023/10/25 10:02:14;;;;;;;1.10;1.00;;;18.90;81.40;;;;;;5097868;28;20172;-69
2023/10/25 10:05:07;;;;;;;1.30;1.08;;;18.90;82.10;;;;;;5107446;28;20212;-69
2023/10/25 10:07:55;;;;;;;1.27;1.17;;;19.00;81.50;;;;;;5083323;28;20593;-69
2023/10/25 10:11:07;;;;;;;1.48;1.10;;;18.90;81.30;;;;;;5106921;28;20187;-69
2023/10/25 10:13:33;;;;;;;1.10;1.10;;;18.90;81.30;;;;;;5093989;28;20231;-69
2023/10/25 10:16:13;;;;;;;0.80;0.80;;;18.90;81.30;;;;;;5086143;28;20265;-69
2023/10/25 10:18:45;;;;;;;1.50;1.25;;;19.00;81.40;;;;;;5107435;28;20191;-69
2023/10/25 10:21:14;;;;;;;1.63;1.10;;;19.00;81.40;;;;;;5095345;28;20317;-69
2023/10/25 10:23:51;;;;;;;1.13;1.02;;;19.00;81.40;;;;;;5073895;28;20211;-69
2023/10/25 10:26:44;;;;;;;1.00;1.00;;;19.00;81.30;;;;;;5088676;28;20199;-69
2023/10/25 10:29:31;;;;;;;1.20;0.90;;;19.00;81.40;;;;;;5111548;28;20209;-69
2023/10/25 10:32:09;;;;;;;0.95;0.93;;;19.00;81.40;;;;;;5086236;28;20200;-69
2023/10/25 10:34:50;;;;;;;1.00;1.00;;;19.00;81.40;;;;;;5088676;28;20220;-69
2023/10/25 10:37:22;;;;;;;1.15;1.05;;;19.00;81.30;;;;;;5112246;28;20266;-69
2023/10/25 10:40:03;;;;;;;1.30;1.00;;;19.00;81.30;;;;;;5090498;28;20172;-69
2023/10/25 10:42:28;;;;;;;1.70;1.27;;;19.00;81.30;;;;;;5084180;28;20188;-69
2023/10/25 10:44:59;;;;;;;1.45;1.15;;;19.00;81.40;;;;;;5114778;28;20218;-68
2023/10/25 10:47:52;;;;;;;1.27;0.98;;;19.00;81.30;;;;;;5096636;28;20233;-69
2023/10/25 10:50:22;;;;;;;1.33;1.00;;;19.00;81.40;;;;;;5055991;28;20200;-69
2023/10/25 10:52:50;;;;;;;1.17;1.00;;;19.00;81.40;;;;;;5105676;28;20231;-69
2023/10/25 10:55:24;;;;;;;6.15;1.15;;;19.00;81.40;;;;;;5074949;28;20249;-69
2023/10/25 10:57:52;;;;;;;1.15;1.00;;;19.00;81.40;;;;;;5090497;28;20179;-69
2023/10/25 11:00:18;;;;;;;0.93;0.93;;;19.00;81.40;;;;;;5077493;28;20202;-69
2023/10/25 11:02:50;;;;;;;1.20;0.90;;;19.00;81.40;;;;;;5097408;28;20212;-69
2023/10/25 11:05:22;;;;;;;0.75;0.75;;;19.00;81.40;;;;;;5109000;28;20219;-69
2023/10/25 11:07:50;;;;;;;1.13;1.00;;;19.00;81.40;;;;;;5092859;28;20719;-68
2023/10/25 11:10:16;;;;;;;1.10;1.00;;;19.00;81.40;;;;;;5111122;28;20662;-69
2023/10/25 11:12:45;;;;;;;1.10;1.00;;;19.00;81.40;;;;;;5075603;28;20204;-69
2023/10/25 11:15:12;;;;;;;1.83;0.95;;;19.00;81.40;;;;;;5096190;28;20203;-68
2023/10/25 11:17:39;;;;;;;0.95;0.90;;;19.10;81.50;;;;;;5067363;28;20180;-69
2023/10/25 11:20:06;;;;;;;0.98;0.90;;;19.00;81.40;;;;;;5096543;28;20212;-69
2023/10/25 11:22:33;;;;;;;1.10;1.00;;;19.00;81.40;;;;;;5095371;28;20188;-69
2023/10/25 11:24:59;;;;;;;1.13;1.10;;;19.00;81.50;;;;;;5085573;28;20209;-70
2023/10/25 11:27:31;;;;;;;1.15;1.05;;;19.00;81.50;;;;;;5074436;28;20200;-70
2023/10/25 11:29:58;;;;;;;0.98;0.93;;;19.00;81.50;;;;;;5091453;28;20191;-70
2023/10/25 11:32:24;;;;;;;0.80;0.80;;;19.10;81.50;;;;;;5093835;28;20268;-71
2023/10/25 11:34:54;;;;;;;1.10;1.02;;;19.10;81.60;;;;;;5089284;28;20236;-70
2023/10/25 11:37:20;;;;;;;0.80;0.80;;;19.00;81.50;;;;;;5083473;28;20215;-70
2023/10/25 11:40:01;;;;;;;1.10;1.00;;;19.00;81.50;;;;;;5083767;28;20195;-72
2023/10/25 11:42:32;;;;;;;0.95;0.90;;;19.10;81.50;;;;;;5095570;28;20187;-70
2023/10/25 11:45:03;;;;;;;1.25;0.70;;;19.10;81.60;;;;;;5084618;28;20254;-70
2023/10/25 11:47:32;;;;;;;0.80;0.80;;;19.00;81.50;;;;;;5101870;28;20591;-70
2023/10/25 11:50:03;;;;;;;0.80;0.80;;;19.10;81.70;;;;;;5089371;28;20195;-69
2023/10/25 11:52:31;;;;;;;0.73;0.70;;;19.00;81.60;;;;;;5089646;28;20268;-69
2023/10/25 11:54:59;;;;;;;1.45;1.10;;;19.10;81.60;;;;;;5089764;28;20693;-69
2023/10/25 11:57:34;;;;;;;1.02;0.93;;;19.10;81.60;;;;;;5113515;28;20215;-69
2023/10/25 12:00:00;;;;;;;0.80;0.80;;;19.10;81.60;;;;;;5108527;28;20190;-69
2023/10/25 12:02:27;;;;;;;0.80;0.80;;;19.10;81.60;;;;;;5100909;28;20191;-69
2023/10/25 12:04:55;;;;;;;0.95;0.65;;;19.10;81.60;;;;;;5094856;28;20216;-69
2023/10/25 12:07:22;;;;;;;0.93;0.82;;;19.10;81.60;;;;;;5095293;28;20219;-69
2023/10/25 12:09:49;;;;;;;0.98;0.93;;;19.10;81.50;;;;;;5070194;28;20180;-69
2023/10/25 12:12:16;;;;;;;0.80;0.77;;;19.10;81.60;;;;;;5089427;28;20309;-69
2023/10/25 12:14:42;;;;;;;1.00;0.90;;;19.10;81.50;;;;;;5092977;28;20235;-68
2023/10/25 12:17:07;;;;;;;0.77;0.77;;;19.10;81.50;;;;;;5109128;28;20669;-69
2023/10/25 12:19:37;;;;;;;1.10;1.00;;;19.10;81.50;;;;;;5083222;28;20237;-69
2023/10/25 12:22:05;;;;;;;0.70;0.70;;;19.10;81.50;;;;;;5084123;28;20599;-69
2023/10/25 12:24:32;;;;;;;0.80;0.80;;;19.10;81.50;;;;;;5088237;28;20221;-69
2023/10/25 12:26:59;;;;;;;0.95;0.95;;;19.10;81.50;;;;;;5100508;28;20208;-69
2023/10/25 12:29:25;;;;;;;1.02;0.80;;;19.10;81.50;;;;;;5093363;28;20195;-69
2023/10/25 12:31:51;;;;;;;0.80;0.80;;;19.10;81.50;;;;;;5086191;28;20212;-69
2023/10/25 12:34:17;;;;;;;0.77;0.77;;;19.10;81.50;;;;;;5091687;28;20211;-69
2023/10/25 12:36:43;;;;;;;0.75;0.60;;;19.10;81.60;;;;;;5112843;28;20180;-69
2023/10/25 12:39:08;;;;;;;0.80;0.70;;;19.10;81.50;;;;;;5112864;28;20263;-69
2023/10/25 12:41:34;;;;;;;0.70;0.70;;;19.10;81.50;;;;;;5083265;28;20207;-69
2023/10/25 12:44:05;;;;;;;2.20;1.00;;;19.10;81.60;;;;;;5077339;28;20207;-69
2023/10/25 12:46:31;;;;;;;0.80;0.80;;;19.10;81.60;;;;;;5077600;28;20235;-69
2023/10/25 12:48:58;;;;;;;0.98;0.98;;;19.10;81.60;;;;;;5085657;28;20187;-69
2023/10/25 12:51:23;;;;;;;1.20;0.90;;;19.10;82.40;;;;;;5093106;28;20212;-69
2023/10/25 12:53:49;;;;;;;0.70;0.70;;;19.10;81.50;;;;;;5068943;28;20218;-69